createdAt,value
2018-12-16T00:00:18.802Z,198.87
2018-12-16T00:01:18.811Z,196.71
2018-12-16T00:02:18.818Z,196.13
2018-12-16T00:03:18.793Z,195.69
2018-12-16T00:04:18.869Z,195.14
2018-12-16T00:05:18.839Z,194.16
2018-12-16T00:06:18.833Z,193.88
2018-12-16T00:07:18.886Z,193.8
2018-12-16T00:08:18.844Z,190.96
2018-12-16T00:09:18.809Z,189.67
2018-12-16T00:10:18.878Z,187.75
2018-12-16T00:11:18.881Z,186.58
2018-12-16T00:15:48.416Z,184.95
2018-12-16T00:16:48.408Z,184.34
2018-12-16T00:17:48.491Z,184.73
2018-12-16T00:18:48.417Z,185.19
2018-12-16T00:19:48.421Z,184.14
2018-12-16T00:20:48.498Z,184.42
2018-12-16T00:21:48.445Z,183.95
2018-12-16T00:22:48.414Z,183.18
2018-12-16T00:23:48.409Z,183.69
2018-12-16T00:24:48.394Z,182.49
2018-12-16T00:25:48.425Z,182.5
2018-12-16T00:26:48.437Z,181.44
2018-12-16T00:27:48.412Z,180.31
2018-12-16T00:28:48.410Z,179.73
2018-12-16T00:29:48.416Z,178.37
2018-12-16T00:30:48.424Z,178.64
2018-12-16T00:31:48.482Z,178.11
2018-12-16T00:32:48.443Z,178.3
2018-12-16T00:33:48.403Z,177.86
2018-12-16T00:34:48.420Z,178.12
2018-12-16T00:35:48.446Z,176.94
2018-12-16T00:36:48.411Z,175.72
2018-12-16T00:37:48.413Z,174.47
2018-12-16T00:38:48.426Z,174.51
2018-12-16T00:39:48.436Z,172.6
2018-12-16T00:40:48.420Z,172.16
2018-12-16T00:41:48.467Z,170.69
2018-12-16T00:42:48.432Z,170.73
2018-12-16T00:43:48.406Z,170.08
2018-12-16T00:44:48.445Z,170.34
2018-12-16T00:45:48.421Z,169.13
2018-12-16T00:46:48.426Z,168.7
2018-12-16T00:47:48.420Z,168.78
2018-12-16T00:48:48.447Z,167.71
2018-12-16T00:49:48.447Z,168.08
2018-12-16T00:50:48.428Z,166.58
2018-12-16T00:51:48.445Z,166.71
2018-12-16T00:52:48.440Z,165.51
2018-12-16T00:53:48.425Z,164.7
2018-12-16T00:54:48.429Z,163.39
2018-12-16T00:55:48.488Z,162.46
2018-12-16T00:56:48.440Z,161.74
2018-12-16T00:57:48.479Z,160.29
2018-12-16T00:58:48.476Z,159.91
2018-12-16T00:59:48.481Z,159.1
2018-12-16T01:00:48.457Z,158.43
2018-12-16T01:01:48.469Z,157.41
2018-12-16T01:02:48.417Z,157.16
2018-12-16T01:03:48.457Z,155.22
2018-12-16T01:04:48.464Z,154.74
2018-12-16T01:05:48.484Z,154.73
2018-12-16T01:06:48.460Z,153.5
2018-12-16T01:07:48.440Z,153.52
2018-12-16T01:08:48.459Z,152.71
2018-12-16T01:09:48.448Z,153.09
2018-12-16T01:10:48.453Z,152.24
2018-12-16T01:11:48.471Z,152.36
2018-12-16T01:12:48.469Z,152.32
2018-12-16T01:13:48.451Z,152.06
2018-12-16T01:14:48.448Z,152.44
2018-12-16T01:15:48.470Z,151.93
2018-12-16T01:16:48.470Z,151.08
2018-12-16T01:17:48.454Z,150.36
2018-12-16T01:18:48.490Z,150
2018-12-16T01:19:48.477Z,148.65
2018-12-16T01:20:48.534Z,147.82
2018-12-16T01:21:48.456Z,146.71
2018-12-16T01:22:48.468Z,145.46
2018-12-16T01:23:48.480Z,145.24
2018-12-16T01:24:48.479Z,144.2
2018-12-16T01:25:48.481Z,144.42
2018-12-16T01:26:48.489Z,143.37
2018-12-16T01:27:48.461Z,142.59
2018-12-16T01:28:48.467Z,141.73
2018-12-16T01:29:48.475Z,139.99
2018-12-16T01:30:48.469Z,140.21
2018-12-16T01:31:48.495Z,138.73
2018-12-16T01:32:48.509Z,138.2
2018-12-16T01:37:17.976Z,134.88
2018-12-16T01:38:17.982Z,134.44
2018-12-16T01:39:17.978Z,132.89
2018-12-16T01:40:18.000Z,132.22
2018-12-16T01:41:18.005Z,131.56
2018-12-16T01:42:18.013Z,130.24
2018-12-16T01:43:17.974Z,128.97
2018-12-16T01:44:18.006Z,126.54
2018-12-16T01:45:17.994Z,126.51
2018-12-16T01:46:18.004Z,123.52
2018-12-16T01:47:17.996Z,121.87
2018-12-16T01:48:18.047Z,121.31
2018-12-16T01:49:17.997Z,120.88
2018-12-16T01:50:17.982Z,119.92
2018-12-16T01:51:18.034Z,117.72
2018-12-16T01:52:19.378Z,117.03
2018-12-16T01:53:18.017Z,117.18
2018-12-16T01:54:17.980Z,116.47
2018-12-16T01:55:18.758Z,115.49
2018-12-16T01:56:17.985Z,114.18
2018-12-16T01:57:18.042Z,114.15
2018-12-16T01:58:17.995Z,114.18
2018-12-16T01:59:18.016Z,113.67
2018-12-16T02:00:18.021Z,114.96
2018-12-16T02:01:18.009Z,114.4
2018-12-16T02:02:18.554Z,114.22
2018-12-16T02:03:18.039Z,113.94
2018-12-16T02:04:18.023Z,113.67
2018-12-16T02:05:18.029Z,112.77
2018-12-16T02:06:18.005Z,111.3
2018-12-16T02:10:47.823Z,107.65
2018-12-16T02:11:47.833Z,105.02
2018-12-16T02:12:47.785Z,102.99
2018-12-16T02:13:47.777Z,102.46
2018-12-16T02:14:47.788Z,101.01
2018-12-16T02:15:47.805Z,100.01
2018-12-16T02:16:47.799Z,100.01
2018-12-16T02:17:47.798Z,99.09
2018-12-16T02:18:47.796Z,99.37
2018-12-16T02:19:47.768Z,99.14
2018-12-16T02:20:47.913Z,97.61
2018-12-16T02:21:47.794Z,97.22
2018-12-16T02:22:47.788Z,96.9
2018-12-16T02:23:47.825Z,96.58
2018-12-16T02:24:47.845Z,94.84
2018-12-16T02:25:47.801Z,94.64
2018-12-16T02:26:47.793Z,93.86
2018-12-16T02:27:47.805Z,93.3
2018-12-16T02:28:47.830Z,92.38
2018-12-16T02:29:47.823Z,92.2
2018-12-16T02:30:47.812Z,92.13
2018-12-16T02:31:47.830Z,91.87
2018-12-16T02:32:47.798Z,90.61
2018-12-16T02:33:47.880Z,91.54
2018-12-16T02:34:47.852Z,91.3
2018-12-16T02:35:47.818Z,92.04
2018-12-16T02:36:48.029Z,91.57
2018-12-16T02:37:47.860Z,92.77
2018-12-16T02:38:47.841Z,93.01
2018-12-16T02:39:47.831Z,94.02
2018-12-16T02:40:47.821Z,94.32
2018-12-16T02:47:28.205Z,92.57
2018-12-16T02:48:28.167Z,91.23
2018-12-16T02:49:28.144Z,91.08
2018-12-16T02:50:28.170Z,90.61
2018-12-16T02:51:28.220Z,90.06
2018-12-16T02:52:28.220Z,90.09
2018-12-16T02:53:28.178Z,90.3
2018-12-16T02:54:28.169Z,89.55
2018-12-16T02:55:28.226Z,88.6
2018-12-16T02:56:28.169Z,89.53
2018-12-16T02:57:28.187Z,89.85
2018-12-16T02:58:28.160Z,89.53
2018-12-16T02:59:28.191Z,89.95
2018-12-16T03:00:28.177Z,90.19
2018-12-16T03:01:28.198Z,89.95
2018-12-16T03:02:28.201Z,89.17
2018-12-16T03:03:28.170Z,89.47
2018-12-16T03:04:28.219Z,88.6
2018-12-16T03:05:28.250Z,87.93
2018-12-16T03:06:28.234Z,88.18
2018-12-16T03:07:28.182Z,86.57
2018-12-16T03:08:28.187Z,86.92
2018-12-16T03:09:28.192Z,87.34
2018-12-16T03:10:28.188Z,87.07
2018-12-16T03:11:28.208Z,87.07
2018-12-16T03:13:32.527Z,86.2
2018-12-16T03:14:32.559Z,86.49
2018-12-16T03:15:32.488Z,87.17
2018-12-16T03:16:32.499Z,87.5
2018-12-16T03:17:32.520Z,88.24
2018-12-16T03:18:32.510Z,89.22
2018-12-16T03:19:32.628Z,88.23
2018-12-16T03:20:32.506Z,88.2
2018-12-16T03:21:32.494Z,88.92
2018-12-16T03:22:32.535Z,89.37
2018-12-16T03:23:32.508Z,89.18
2018-12-16T03:24:32.509Z,88.88
2018-12-16T03:25:32.494Z,88.88
2018-12-16T03:26:35.982Z,89.82
2018-12-16T03:27:32.500Z,90.05
2018-12-16T03:28:32.500Z,89.07
2018-12-16T03:29:39.503Z,89.83
2018-12-16T03:30:33.021Z,89.3
2018-12-16T03:31:32.524Z,89.28
2018-12-16T03:32:32.512Z,90.3
2018-12-16T03:33:44.245Z,91.05
2018-12-16T03:34:32.623Z,90.95
2018-12-16T03:35:45.430Z,91.19
2018-12-16T03:36:49.741Z,92.45
2018-12-16T03:37:45.623Z,92.19
2018-12-16T03:38:45.558Z,92.74
2018-12-16T03:41:27.057Z,92.93
2018-12-16T03:42:26.773Z,92.7
2018-12-16T03:43:26.563Z,93.31
2018-12-16T03:44:26.552Z,92.84
2018-12-16T03:45:26.648Z,93.45
2018-12-16T03:46:26.663Z,93.5
2018-12-16T03:47:26.551Z,92.89
2018-12-16T03:48:26.608Z,94.11
2018-12-16T03:50:30.258Z,93.95
2018-12-16T03:51:30.225Z,93.5
2018-12-16T03:52:30.240Z,93.63
2018-12-16T03:53:30.249Z,94.64
2018-12-16T03:54:30.255Z,94.08
2018-12-16T03:55:30.222Z,93.79
2018-12-16T03:57:02.766Z,94.26
2018-12-16T03:58:16.532Z,95.74
2018-12-16T03:59:02.751Z,95.94
2018-12-16T04:00:03.295Z,95.89
2018-12-16T04:01:03.257Z,96.92
2018-12-16T04:02:03.278Z,96.91
2018-12-16T04:03:03.293Z,96.17
2018-12-16T04:04:03.287Z,96.4
2018-12-16T04:05:03.323Z,96.14
2018-12-16T04:06:15.077Z,95.6
2018-12-16T04:07:06.579Z,94.35
2018-12-16T04:08:03.325Z,93.76
2018-12-16T04:09:03.310Z,92.18
2018-12-16T04:10:03.316Z,92.99
2018-12-16T04:11:03.267Z,92.17
2018-12-16T04:12:03.303Z,91.21
2018-12-16T04:13:03.283Z,90.33
2018-12-16T04:14:03.308Z,89.39
2018-12-16T04:15:03.329Z,88.33
2018-12-16T04:16:03.316Z,87.91
2018-12-16T04:17:03.313Z,87.15
2018-12-16T04:18:03.587Z,87.86
2018-12-16T04:19:03.304Z,87.2
2018-12-16T04:20:03.290Z,87.39
2018-12-16T04:21:03.337Z,87.06
2018-12-16T04:22:03.293Z,87.06
2018-12-16T04:23:03.343Z,86.2
2018-12-16T04:24:03.310Z,85.95
2018-12-16T04:25:03.320Z,85.48
2018-12-16T04:26:03.340Z,84.22
2018-12-16T04:27:03.327Z,85.75
2018-12-16T04:28:03.364Z,84.26
2018-12-16T04:29:03.330Z,84.48
2018-12-16T04:30:03.325Z,85.03
2018-12-16T04:31:03.355Z,84.31
2018-12-16T04:32:03.331Z,84.84
2018-12-16T04:33:03.325Z,84.84
2018-12-16T04:34:03.324Z,85.38
2018-12-16T04:35:03.331Z,85.07
2018-12-16T04:36:03.335Z,85.05
2018-12-16T04:37:03.322Z,85.47
2018-12-16T04:38:03.356Z,86.72
2018-12-16T04:39:04.010Z,86.2
2018-12-16T04:40:03.336Z,86.84
2018-12-16T04:41:03.325Z,85.85
2018-12-16T04:42:03.322Z,86.13
2018-12-16T04:43:03.329Z,86.07
2018-12-16T04:44:03.344Z,85.35
2018-12-16T04:45:03.349Z,84.81
2018-12-16T04:46:03.354Z,85.07
2018-12-16T04:47:03.356Z,84.79
2018-12-16T04:48:03.354Z,83.23
2018-12-16T04:49:03.325Z,82.66
2018-12-16T04:50:03.345Z,82.34
2018-12-16T04:51:03.354Z,81.54
2018-12-16T04:52:03.339Z,81.32
2018-12-16T04:53:03.354Z,80.25
2018-12-16T04:54:03.355Z,80.59
2018-12-16T04:55:03.367Z,79.08
2018-12-16T04:56:03.362Z,78.28
2018-12-16T04:57:03.349Z,77.78
2018-12-16T04:58:03.349Z,78.55
2018-12-16T04:59:03.364Z,78.02
2018-12-16T05:00:03.359Z,79.44
2018-12-16T05:01:03.377Z,79.39
2018-12-16T05:02:03.394Z,78.92
2018-12-16T05:03:03.346Z,79.92
2018-12-16T05:04:03.354Z,81.47
2018-12-16T05:05:03.366Z,81.85
2018-12-16T05:06:03.365Z,80.84
2018-12-16T05:07:03.393Z,82.62
2018-12-16T05:08:03.371Z,82.82
2018-12-16T05:09:03.604Z,83.6
2018-12-16T05:10:03.376Z,83.31
2018-12-16T05:11:03.383Z,83.52
2018-12-16T05:12:03.389Z,84.05
2018-12-16T05:13:03.355Z,83.98
2018-12-16T05:14:03.382Z,83.72
2018-12-16T05:15:03.380Z,83.52
2018-12-16T05:16:03.397Z,83.99
2018-12-16T05:17:03.428Z,83.49
2018-12-16T05:18:03.387Z,83.73
2018-12-16T05:19:03.407Z,82.39
2018-12-16T05:20:03.401Z,83.63
2018-12-16T05:21:03.388Z,83.05
2018-12-16T05:22:03.389Z,83.79
2018-12-16T05:23:03.376Z,84.27
2018-12-16T05:24:03.387Z,84.81
2018-12-16T05:28:32.680Z,82.95
2018-12-16T05:29:32.792Z,82.03
2018-12-16T05:30:32.823Z,82.15
2018-12-16T05:31:32.668Z,83.27
2018-12-16T05:32:32.829Z,83.31
2018-12-16T05:33:32.651Z,82.75
2018-12-16T05:34:32.657Z,83.29
2018-12-16T05:35:32.663Z,84.27
2018-12-16T05:36:32.658Z,84.23
2018-12-16T05:37:32.666Z,84.93
2018-12-16T05:38:32.663Z,84.45
2018-12-16T05:39:32.659Z,85.32
2018-12-16T05:40:32.686Z,85.32
2018-12-16T05:41:32.720Z,86.03
2018-12-16T05:42:32.673Z,85.79
2018-12-16T05:43:32.676Z,85.75
2018-12-16T05:44:32.687Z,86.78
2018-12-16T05:45:32.677Z,87.44
2018-12-16T05:46:32.695Z,86.96
2018-12-16T05:47:32.671Z,88.56
2018-12-16T05:48:32.681Z,88.44
2018-12-16T05:49:32.672Z,89.88
2018-12-16T05:50:32.691Z,91.36
2018-12-16T05:51:32.686Z,91.46
2018-12-16T05:52:32.683Z,91.45
2018-12-16T05:53:32.701Z,93.17
2018-12-16T05:54:32.685Z,93.4
2018-12-16T05:55:32.688Z,93.63
2018-12-16T05:56:32.704Z,94.62
2018-12-16T05:57:34.058Z,94.76
2018-12-16T05:58:32.712Z,96.19
2018-12-16T05:59:32.718Z,97
2018-12-16T06:00:32.709Z,97.78
2018-12-16T06:01:32.691Z,98.05
2018-12-16T06:02:32.709Z,97.96
2018-12-16T06:03:32.741Z,98.17
2018-12-16T06:04:32.744Z,98.65
2018-12-16T06:05:32.697Z,99.06
2018-12-16T06:06:32.714Z,99.37
2018-12-16T06:07:32.710Z,99.82
2018-12-16T06:08:32.746Z,98.88
2018-12-16T06:09:32.716Z,98.82
2018-12-16T06:10:32.758Z,99.34
2018-12-16T06:11:32.730Z,99.36
2018-12-16T06:12:32.702Z,98.57
2018-12-16T06:13:32.706Z,99.36
2018-12-16T06:14:32.717Z,98.88
2018-12-16T06:15:32.727Z,101.44
2018-12-16T06:16:32.796Z,102.84
2018-12-16T06:17:32.730Z,103.11
2018-12-16T06:18:32.774Z,103.68
2018-12-16T06:19:32.738Z,104.4
2018-12-16T06:20:32.714Z,105.13
2018-12-16T06:21:32.737Z,106.68
2018-12-16T06:22:32.761Z,108.08
2018-12-16T06:23:32.753Z,109.12
2018-12-16T06:28:03.098Z,111.2
2018-12-16T06:29:03.115Z,110.81
2018-12-16T06:30:03.087Z,110.79
2018-12-16T06:31:03.082Z,111.26
2018-12-16T06:32:03.133Z,111.3
2018-12-16T06:33:03.078Z,111.17
2018-12-16T06:34:03.143Z,111.16
2018-12-16T06:35:03.101Z,112.87
2018-12-16T06:36:03.128Z,113.43
2018-12-16T06:37:03.109Z,113.73
2018-12-16T06:38:03.115Z,114.47
2018-12-16T06:39:04.086Z,114.41
2018-12-16T06:40:03.121Z,114.37
2018-12-16T06:41:03.089Z,114.51
2018-12-16T06:42:03.094Z,114.52
2018-12-16T06:43:04.402Z,115.27
2018-12-16T06:44:03.160Z,115.42
2018-12-16T06:45:03.114Z,115.38
2018-12-16T06:46:03.121Z,115.69
2018-12-16T06:47:03.127Z,116.77
2018-12-16T06:48:03.133Z,117.5
2018-12-16T06:49:03.144Z,118.47
2018-12-16T06:50:03.167Z,118.98
2018-12-16T06:51:03.153Z,119.73
2018-12-16T06:52:03.116Z,119.73
2018-12-16T06:53:03.136Z,120.13
2018-12-16T06:54:03.112Z,120.18
2018-12-16T06:55:03.149Z,120.64
2018-12-16T06:56:06.680Z,120.88
2018-12-16T06:57:03.157Z,121.05
2018-12-16T06:58:03.117Z,122.44
2018-12-16T06:59:03.142Z,123.77
2018-12-16T07:00:03.141Z,124.07
2018-12-16T07:01:03.160Z,124.83
2018-12-16T07:02:03.183Z,126.33
2018-12-16T07:03:03.171Z,127.31
2018-12-16T07:04:03.145Z,128.37
2018-12-16T07:05:03.144Z,128.16
2018-12-16T07:06:03.155Z,128.56
2018-12-16T07:07:03.160Z,128.8
2018-12-16T07:13:41.190Z,132.16
2018-12-16T07:14:41.167Z,133.16
2018-12-16T07:15:41.177Z,133.35
2018-12-16T07:16:41.193Z,134.04
2018-12-16T07:17:41.170Z,134.7
2018-12-16T07:18:41.234Z,134.98
2018-12-16T07:19:41.222Z,136.1
2018-12-16T07:20:41.177Z,136.36
2018-12-16T07:21:41.179Z,137.42
2018-12-16T07:22:41.186Z,136.87
2018-12-16T07:23:41.214Z,137.33
2018-12-16T07:24:41.172Z,136.5
2018-12-16T07:25:41.184Z,138.2
2018-12-16T07:26:41.181Z,138.04
2018-12-16T07:27:41.189Z,139.28
2018-12-16T07:28:41.170Z,139.36
2018-12-16T07:29:41.219Z,140.66
2018-12-16T07:30:41.186Z,140.83
2018-12-16T07:31:41.239Z,141.12
2018-12-16T07:32:41.217Z,141.67
2018-12-16T07:33:41.202Z,141.65
2018-12-16T07:34:41.225Z,142.04
2018-12-16T07:35:41.208Z,141.7
2018-12-16T07:36:41.184Z,142.31
2018-12-16T07:37:41.201Z,142.36
2018-12-16T07:38:41.228Z,142.42
2018-12-16T07:39:41.198Z,144.36
2018-12-16T07:40:41.206Z,144.4
2018-12-16T07:41:41.228Z,143.81
2018-12-16T07:42:41.217Z,145
2018-12-16T07:47:57.799Z,145.74
2018-12-16T07:48:09.927Z,148.14
2018-12-16T07:49:09.973Z,148.22
2018-12-16T07:50:09.963Z,148.46
2018-12-16T07:51:09.904Z,149.76
2018-12-16T07:52:10.003Z,150.23
2018-12-16T07:53:09.927Z,151.45
2018-12-16T07:54:15.884Z,151.56
2018-12-16T07:55:09.931Z,153.08
2018-12-16T07:56:09.939Z,153.96
2018-12-16T07:57:10.351Z,154.97
2018-12-16T07:58:09.927Z,155.91
2018-12-16T07:59:09.963Z,156.22
2018-12-16T08:00:09.962Z,156.44
2018-12-16T08:01:09.970Z,155.98
2018-12-16T08:02:10.002Z,156.82
2018-12-16T08:03:09.926Z,156.37
2018-12-16T08:04:09.956Z,156.86
2018-12-16T08:05:09.969Z,157.74
2018-12-16T08:06:09.968Z,158.17
2018-12-16T08:07:09.946Z,159.91
2018-12-16T08:08:09.982Z,160.24
2018-12-16T08:09:09.943Z,162.27
2018-12-16T08:10:09.952Z,161.91
2018-12-16T08:11:09.959Z,163.15
2018-12-16T08:12:09.939Z,163.56
2018-12-16T08:13:09.972Z,164.24
2018-12-16T08:14:09.999Z,165.27
2018-12-16T08:18:38.503Z,168.69
2018-12-16T08:19:38.560Z,169.12
2018-12-16T08:20:38.474Z,170.34
2018-12-16T08:21:38.511Z,170.9
2018-12-16T08:22:38.497Z,170.88
2018-12-16T08:23:38.522Z,172.68
2018-12-16T08:24:38.492Z,172.17
2018-12-16T08:25:38.507Z,172.44
2018-12-16T08:26:38.566Z,173.39
2018-12-16T08:27:38.492Z,173.7
2018-12-16T08:28:38.538Z,173.68
2018-12-16T08:29:38.504Z,173.6
2018-12-16T08:34:08.002Z,177.03
2018-12-16T08:35:07.967Z,178.27
2018-12-16T08:36:07.985Z,180.16
2018-12-16T08:37:07.961Z,180.17
2018-12-16T08:38:08.010Z,180.5
2018-12-16T08:39:08.003Z,181.45
2018-12-16T08:40:07.984Z,180.52
2018-12-16T08:41:08.017Z,179.92
2018-12-16T08:42:07.954Z,180.46
2018-12-16T08:43:07.966Z,181.66
2018-12-16T08:44:08.037Z,180.73
2018-12-16T08:45:07.973Z,181.2
2018-12-16T08:46:07.979Z,181.65
2018-12-16T08:47:07.985Z,182.31
2018-12-16T08:48:07.993Z,182.56
2018-12-16T08:49:08.017Z,183.83
2018-12-16T08:50:08.020Z,184.16
2018-12-16T08:51:07.984Z,183.87
2018-12-16T08:52:07.995Z,183.71
2018-12-16T08:53:08.005Z,185.7
2018-12-16T08:54:08.001Z,186.06
2018-12-16T08:55:08.028Z,187.73
2018-12-16T08:59:37.454Z,193.32
2018-12-16T09:00:37.465Z,194.5
2018-12-16T09:01:37.427Z,195.68
2018-12-16T09:02:37.432Z,196.03
2018-12-16T09:03:37.419Z,197.05
2018-12-16T09:08:06.899Z,198.72
2018-12-16T09:09:06.872Z,198.31
2018-12-16T09:10:08.035Z,199.25
2018-12-16T09:11:06.875Z,200.4
2018-12-16T09:12:06.895Z,201.28
2018-12-16T09:13:06.905Z,202.53
2018-12-16T09:14:06.895Z,204.19
2018-12-16T09:15:06.919Z,205.61
2018-12-16T09:16:06.907Z,206.57
2018-12-16T09:17:06.911Z,206.81
2018-12-16T09:18:06.877Z,207
2018-12-16T09:19:06.916Z,207.01
2018-12-16T09:20:06.905Z,207.75
2018-12-16T09:21:06.915Z,207.21
2018-12-16T09:22:06.902Z,207.74
2018-12-16T09:23:06.891Z,208.65
2018-12-16T09:24:06.911Z,208.75
2018-12-16T09:25:06.905Z,208.97
2018-12-16T09:26:06.913Z,208.69
2018-12-16T09:27:06.962Z,207.72
2018-12-16T09:28:06.930Z,207.53
2018-12-16T09:29:06.910Z,206.63
2018-12-16T09:30:06.918Z,206.32
2018-12-16T09:31:06.933Z,204.72
2018-12-16T09:32:06.923Z,205.25
2018-12-16T09:33:06.934Z,203.75
2018-12-16T09:34:06.922Z,203.85
2018-12-16T09:35:06.942Z,201.83
2018-12-16T09:36:06.938Z,200.39
2018-12-16T09:37:06.994Z,199.13
2018-12-16T09:38:06.919Z,198.45
2018-12-16T09:39:06.932Z,197.76
2018-12-16T09:40:06.943Z,196.3
2018-12-16T09:41:06.938Z,195.81
2018-12-16T09:42:06.925Z,196.01
2018-12-16T09:43:06.954Z,195.53
2018-12-16T09:44:06.972Z,195.9
2018-12-16T09:45:06.936Z,197.48
2018-12-16T09:46:06.944Z,198.07
2018-12-16T09:47:06.926Z,199.34
2018-12-16T09:48:06.951Z,199.12
2018-12-16T09:49:06.937Z,199.65
2018-12-16T09:50:07.173Z,199.55
2018-12-16T09:51:06.976Z,199.54
2018-12-16T09:52:06.941Z,199.82
2018-12-16T09:53:06.963Z,200.08
2018-12-16T09:54:07.027Z,200.73
2018-12-16T09:55:06.973Z,201.02
2018-12-16T09:56:07.039Z,201.47
2018-12-16T09:57:06.946Z,202.41
2018-12-16T09:58:06.959Z,202.74
2018-12-16T09:59:06.963Z,202.63
2018-12-16T10:00:06.967Z,202.96
2018-12-16T10:01:06.955Z,203.01
2018-12-16T10:02:06.968Z,203.89
2018-12-16T10:03:06.953Z,204.57
2018-12-16T10:04:06.987Z,205.56
2018-12-16T10:05:06.966Z,205.94
2018-12-16T10:06:06.974Z,205.91
2018-12-16T10:07:07.003Z,205.71
2018-12-16T10:08:08.703Z,206.63
2018-12-16T10:09:06.992Z,205.63
2018-12-16T10:10:06.970Z,206.47
2018-12-16T10:11:06.979Z,206.33
2018-12-16T10:12:06.970Z,206.07
2018-12-16T10:13:06.975Z,206.06
2018-12-16T10:14:07.006Z,205.85
2018-12-16T10:15:06.958Z,205.41
2018-12-16T10:16:06.974Z,204.82
2018-12-16T10:17:06.994Z,203.71
2018-12-16T10:18:07.011Z,204.21
2018-12-16T10:19:06.987Z,204.01
2018-12-16T10:20:06.990Z,203.04
2018-12-16T10:21:07.043Z,202.09
2018-12-16T10:22:07.049Z,201.36
2018-12-16T10:23:06.994Z,201.61
2018-12-16T10:24:07.022Z,201.57
2018-12-16T10:25:07.088Z,201.3
2018-12-16T10:26:07.022Z,200.53
2018-12-16T10:27:07.056Z,201
2018-12-16T10:28:06.994Z,200.03
2018-12-16T10:29:07.036Z,199.71
2018-12-16T10:30:06.999Z,199.29
2018-12-16T10:31:07.034Z,198.52
2018-12-16T10:32:07.027Z,199.43
2018-12-16T10:33:18.192Z,199
2018-12-16T10:34:07.000Z,199.64
2018-12-16T10:35:07.035Z,200.35
2018-12-16T10:36:07.018Z,198.68
2018-12-16T10:37:07.018Z,199.43
2018-12-16T10:38:10.098Z,198.91
2018-12-16T10:39:07.011Z,198.56
2018-12-16T10:40:07.194Z,198.39
2018-12-16T10:41:16.000Z,197.89
2018-12-16T10:42:07.007Z,197.42
2018-12-16T10:43:11.761Z,197.92
2018-12-16T10:44:07.011Z,199.16
2018-12-16T10:45:07.017Z,199.42
2018-12-16T10:46:07.045Z,199.91
2018-12-16T10:47:07.201Z,201.15
2018-12-16T10:48:07.056Z,202.24
2018-12-16T10:49:07.052Z,202.92
2018-12-16T10:50:07.057Z,202.22
2018-12-16T10:51:07.034Z,203.38
2018-12-16T10:52:07.072Z,203.98
2018-12-16T10:53:07.046Z,203.74
2018-12-16T10:54:07.054Z,204.69
2018-12-16T10:55:07.059Z,204.72
2018-12-16T10:56:07.037Z,205.25
2018-12-16T10:57:07.082Z,205.01
2018-12-16T10:58:07.095Z,205.91
2018-12-16T10:59:07.051Z,206.54
2018-12-16T11:00:07.197Z,207.23
2018-12-16T11:01:07.131Z,208.18
2018-12-16T11:02:07.075Z,208.82
2018-12-16T11:03:07.066Z,210.2
2018-12-16T11:04:07.090Z,211.39
2018-12-16T11:05:07.060Z,211.83
2018-12-16T11:06:07.166Z,213.41
2018-12-16T11:07:07.045Z,213.68
2018-12-16T11:08:07.113Z,213.87
2018-12-16T11:09:07.085Z,214.12
2018-12-16T11:10:07.047Z,214.62
2018-12-16T11:11:07.103Z,215.03
2018-12-16T11:12:07.155Z,215.35
2018-12-16T11:13:07.136Z,215.37
2018-12-16T11:14:07.134Z,215.68
2018-12-16T11:15:07.162Z,217.05
2018-12-16T11:16:07.101Z,217.49
2018-12-16T11:17:07.104Z,219.55
2018-12-16T11:18:10.972Z,220.75
2018-12-16T11:19:07.121Z,221.68
2018-12-16T11:20:07.291Z,222.93
2018-12-16T11:21:07.078Z,223.35
2018-12-16T11:22:07.137Z,223.86
2018-12-16T11:23:07.212Z,223.93
2018-12-16T11:24:07.236Z,224.79
2018-12-16T11:25:07.306Z,225.03
2018-12-16T11:26:07.164Z,225.51
2018-12-16T11:27:07.111Z,225.58
2018-12-16T11:28:07.121Z,225.07
2018-12-16T11:29:07.101Z,224.27
2018-12-16T11:30:07.159Z,224.52
2018-12-16T11:31:07.254Z,224.81
2018-12-16T11:32:07.133Z,225.04
2018-12-16T11:33:07.142Z,223.76
2018-12-16T11:34:07.152Z,223.35
2018-12-16T11:35:07.501Z,221.89
2018-12-16T11:36:07.092Z,222.12
2018-12-16T11:37:07.091Z,221.2
2018-12-16T11:38:07.159Z,220.94
2018-12-16T11:39:07.146Z,220.14
2018-12-16T11:40:07.287Z,220.33
2018-12-16T11:41:07.105Z,221.15
2018-12-16T11:42:07.130Z,220.97
2018-12-16T11:43:07.125Z,219.36
2018-12-16T11:44:07.134Z,218.42
2018-12-16T11:45:07.253Z,217.95
2018-12-16T11:46:07.170Z,216.6
2018-12-16T11:47:07.208Z,216.83
2018-12-16T11:48:07.172Z,216.88
2018-12-16T11:49:07.149Z,217.05
2018-12-16T11:50:07.478Z,216.94
2018-12-16T11:51:07.235Z,217.15
2018-12-16T11:52:07.167Z,218.33
2018-12-16T11:53:07.170Z,217.92
2018-12-16T11:54:07.148Z,218.11
2018-12-16T11:55:12.648Z,217.21
2018-12-16T11:56:07.228Z,217.5
2018-12-16T11:57:07.166Z,216.01
2018-12-16T11:58:07.181Z,216.05
2018-12-16T11:59:07.193Z,216.34
2018-12-16T12:00:07.248Z,214.43
2018-12-16T12:01:07.468Z,214.07
2018-12-16T12:02:07.378Z,213.12
2018-12-16T12:03:07.169Z,211.84
2018-12-16T12:04:07.219Z,211.9
2018-12-16T12:05:07.220Z,211.19
2018-12-16T12:06:07.194Z,210.95
2018-12-16T12:07:07.191Z,211.16
2018-12-16T12:08:07.419Z,210.39
2018-12-16T12:09:07.207Z,211.35
2018-12-16T12:10:07.227Z,212.72
2018-12-16T12:11:07.267Z,215.33
2018-12-16T12:12:07.450Z,215.99
2018-12-16T12:13:07.340Z,216.58
2018-12-16T12:14:07.438Z,218.24
2018-12-16T12:15:07.324Z,218.89
2018-12-16T12:16:07.301Z,220.76
2018-12-16T12:17:07.195Z,221.46
2018-12-16T12:18:07.213Z,224.24
2018-12-16T12:19:07.244Z,225.38
2018-12-16T12:20:07.434Z,228.4
2018-12-16T12:21:07.369Z,231.43
2018-12-16T12:22:07.292Z,233.29
2018-12-16T12:23:07.443Z,236.52
2018-12-16T12:24:07.398Z,240.04
2018-12-16T12:25:07.310Z,243.07
2018-12-16T12:26:07.419Z,246.26
2018-12-16T12:27:07.368Z,247.78
2018-12-16T12:28:07.406Z,250.84
2018-12-16T12:29:07.482Z,252.45
2018-12-16T12:30:07.446Z,253.76
2018-12-16T12:31:07.448Z,255.67
2018-12-16T12:32:07.344Z,256.06
2018-12-16T12:33:07.467Z,256.5
2018-12-16T12:34:07.666Z,255.74
2018-12-16T12:35:07.576Z,256.9
2018-12-16T12:36:07.549Z,257.27
2018-12-16T12:37:07.538Z,258.17
2018-12-16T12:38:07.423Z,258.04
2018-12-16T12:39:07.570Z,257.98
2018-12-16T12:40:07.337Z,258.46
2018-12-16T12:41:07.521Z,258.15
2018-12-16T12:42:07.411Z,258.72
2018-12-16T12:43:07.477Z,258.52
2018-12-16T12:44:07.528Z,258.01
2018-12-16T12:45:07.466Z,258.66
2018-12-16T12:46:07.565Z,259.65
2018-12-16T12:47:07.451Z,259.58
2018-12-16T12:54:13.526Z,263.79
2018-12-16T12:54:43.855Z,264.36
2018-12-16T12:55:43.732Z,263.77
2018-12-16T12:56:43.726Z,262.52
2018-12-16T12:57:43.758Z,262.49
2018-12-16T12:58:44.550Z,262.26
2018-12-16T12:59:43.703Z,262.74
2018-12-16T13:00:43.835Z,263.11
2018-12-16T13:01:43.812Z,264.19
2018-12-16T13:02:43.669Z,265.14
2018-12-16T13:03:43.824Z,265.33
2018-12-16T13:04:43.783Z,266.24
2018-12-16T13:05:43.773Z,266.3
2018-12-16T13:06:43.784Z,267.68
2018-12-16T13:07:43.694Z,268.81
2018-12-16T13:08:43.619Z,269.9
2018-12-16T13:09:44.156Z,271.46
2018-12-16T13:10:43.844Z,271.16
2018-12-16T13:11:43.948Z,273.19
2018-12-16T13:12:43.643Z,275.07
2018-12-16T13:13:43.892Z,278.16
2018-12-16T13:14:43.841Z,283.13
2018-12-16T13:15:43.856Z,288.82
2018-12-16T13:16:43.849Z,293.16
2018-12-16T13:17:43.740Z,298.31
2018-12-16T13:18:43.852Z,302.37
2018-12-16T13:19:43.701Z,305.25
2018-12-16T13:20:43.834Z,308.18
2018-12-16T13:21:43.884Z,311.53
2018-12-16T13:22:43.853Z,314.21
2018-12-16T13:23:43.780Z,316.15
2018-12-16T13:24:43.803Z,318.15
2018-12-16T13:25:43.844Z,321.27
2018-12-16T13:26:43.725Z,322.36
2018-12-16T13:27:43.806Z,324.36
2018-12-16T13:28:43.926Z,327.13
2018-12-16T13:29:43.806Z,328.04
2018-12-16T13:30:43.879Z,328.43
2018-12-16T13:31:43.920Z,330.37
2018-12-16T13:32:43.929Z,330.18
2018-12-16T13:33:43.847Z,330.84
2018-12-16T13:34:43.902Z,330.6